createdAt,value
2018-04-18T00:02:24.589Z,16.67
2018-04-18T00:04:51.609Z,16.40
2018-04-18T00:07:18.532Z,17.50
2018-04-18T00:09:45.413Z,16.93
2018-04-18T00:12:12.369Z,17.30
2018-04-18T00:14:39.251Z,18.87
2018-04-18T00:17:06.847Z,17.67
2018-04-18T00:19:33.948Z,17.23
2018-04-18T00:22:00.805Z,17.37
2018-04-18T00:24:28.424Z,17.77
2018-04-18T00:26:55.423Z,17.17
2018-04-18T00:29:23.088Z,17.27
2018-04-18T00:31:50.792Z,16.60
2018-04-18T00:34:17.765Z,17.37
2018-04-18T00:36:44.696Z,16.77
2018-04-18T00:39:11.582Z,18.67
2018-04-18T00:41:39.380Z,17.67
2018-04-18T00:44:06.293Z,15.40
2018-04-18T00:46:33.160Z,18.30
2018-04-18T00:49:00.284Z,17.30
2018-04-18T00:51:27.159Z,17.67
2018-04-18T00:53:54.020Z,17.43
2018-04-18T00:56:21.123Z,17.07
2018-04-18T00:58:47.999Z,18.13
2018-04-18T01:01:14.878Z,17.23
2018-04-18T01:03:41.847Z,16.77
2018-04-18T01:06:08.777Z,17.40
2018-04-18T01:08:35.696Z,17.87
2018-04-18T01:11:02.762Z,17.87
2018-04-18T01:13:29.637Z,17.57
2018-04-18T01:15:56.503Z,17.73
2018-04-18T01:18:24.306Z,16.27
2018-04-18T01:20:51.230Z,17.77
2018-04-18T01:23:18.102Z,18.30
2018-04-18T01:25:45.116Z,18.10
2018-04-18T01:28:12.797Z,18.57
2018-04-18T01:30:39.661Z,18.87
2018-04-18T01:33:06.725Z,19.43
2018-04-18T01:35:33.584Z,18.90
2018-04-18T01:38:00.513Z,20.27
2018-04-18T01:40:27.609Z,18.57
2018-04-18T01:42:54.522Z,19.40
2018-04-18T01:45:21.430Z,18.10
2018-04-18T01:47:48.489Z,18.90
2018-04-18T01:50:15.368Z,17.47
2018-04-18T01:52:42.336Z,19.00
2018-04-18T01:55:10.208Z,19.10
2018-04-18T01:57:37.815Z,17.93
2018-04-18T02:00:04.800Z,19.40
2018-04-18T02:02:31.856Z,17.53
2018-04-18T02:04:58.730Z,18.77
2018-04-18T02:07:25.893Z,19.50
2018-04-18T02:09:52.901Z,18.67
2018-04-18T02:12:19.828Z,18.60
2018-04-18T02:14:49.547Z,18.50
2018-04-18T02:17:16.553Z,17.00
2018-04-18T02:19:43.467Z,16.37
2018-04-18T02:22:11.128Z,17.60
2018-04-18T02:24:38.996Z,18.33
2018-04-18T02:27:06.607Z,18.53
2018-04-18T02:29:33.664Z,17.40
2018-04-18T02:32:01.414Z,18.47
2018-04-18T02:34:28.345Z,17.87
2018-04-18T02:36:55.260Z,18.27
2018-04-18T02:39:23.132Z,18.37
2018-04-18T02:41:50.067Z,18.90
2018-04-18T02:44:18.181Z,18.20
2018-04-18T02:46:45.259Z,18.10
2018-04-18T02:49:12.169Z,18.73
2018-04-18T02:51:39.141Z,17.20
2018-04-18T02:54:06.118Z,18.13
2018-04-18T02:56:32.997Z,18.47
2018-04-18T02:58:59.902Z,20.53
2018-04-18T03:01:26.921Z,20.13
2018-04-18T03:03:53.826Z,19.37
2018-04-18T03:06:21.447Z,20.23
2018-04-18T03:08:48.378Z,18.27
2018-04-18T03:11:15.315Z,19.93
2018-04-18T03:13:42.201Z,18.37
2018-04-18T03:16:09.768Z,18.80
2018-04-18T03:18:36.653Z,18.30
2018-04-18T03:21:03.542Z,18.30
2018-04-18T03:23:32.412Z,18.93
2018-04-18T03:25:59.323Z,19.50
2018-04-18T03:28:26.209Z,18.83
2018-04-18T03:30:53.392Z,19.27
2018-04-18T03:33:20.274Z,18.43
2018-04-18T03:35:47.145Z,19.20
2018-04-18T03:38:14.864Z,19.13
2018-04-18T03:40:42.472Z,18.47
2018-04-18T03:43:10.133Z,20.17
2018-04-18T03:45:37.177Z,20.27
2018-04-18T03:48:04.113Z,20.30
2018-04-18T03:50:30.990Z,19.90
2018-04-18T03:52:57.912Z,20.50
2018-04-18T03:55:24.837Z,20.17
2018-04-18T03:57:51.704Z,19.30
2018-04-18T04:00:18.812Z,18.83
2018-04-18T04:02:46.479Z,20.23
2018-04-18T04:05:14.121Z,19.40
2018-04-18T04:07:41.304Z,19.73
2018-04-18T04:10:08.239Z,19.97
2018-04-18T04:12:35.908Z,21.93
2018-04-18T04:15:03.625Z,19.53
2018-04-18T04:17:45.401Z,19.67
2018-04-18T04:20:30.739Z,20.50
2018-04-18T04:23:16.664Z,19.67
2018-04-18T04:25:43.707Z,20.30
2018-04-18T04:28:10.572Z,19.40
2018-04-18T04:30:37.513Z,20.20
2018-04-18T04:33:05.675Z,20.70
2018-04-18T04:35:32.607Z,19.53
2018-04-18T04:37:59.523Z,19.70
2018-04-18T04:40:27.578Z,20.53
2018-04-18T04:42:54.533Z,19.37
2018-04-18T04:45:21.547Z,20.47
2018-04-18T04:47:48.556Z,20.67
2018-04-18T04:50:16.176Z,19.77
2018-04-18T04:52:43.041Z,19.17
2018-04-18T04:55:10.058Z,21.40
2018-04-18T04:57:36.963Z,19.67
2018-04-18T05:00:04.601Z,19.77
2018-04-18T05:02:31.558Z,20.07
2018-04-18T05:04:59.183Z,19.77
2018-04-18T05:07:26.094Z,19.40
2018-04-18T05:09:53.207Z,17.77
2018-04-18T05:12:20.132Z,18.83
2018-04-18T05:14:47.009Z,20.43
2018-04-18T05:17:14.879Z,18.60
2018-04-18T05:19:42.735Z,18.40
2018-04-18T05:22:09.668Z,18.93
2018-04-18T05:24:36.677Z,19.13
2018-04-18T05:27:03.581Z,17.67
2018-04-18T05:29:30.457Z,19.13
2018-04-18T05:31:57.464Z,21.07
2018-04-18T05:34:24.404Z,20.43
2018-04-18T05:36:51.336Z,20.63
2018-04-18T05:39:18.418Z,21.90
2018-04-18T05:41:45.335Z,21.83
2018-04-18T05:44:12.389Z,22.00
2018-04-18T05:46:39.460Z,21.67
2018-04-18T05:49:07.090Z,21.63
2018-04-18T05:51:33.961Z,21.40
2018-04-18T05:54:01.120Z,18.20
2018-04-18T05:56:28.061Z,17.87
2018-04-18T05:58:54.992Z,18.90
2018-04-18T06:01:22.225Z,17.67
2018-04-18T06:03:49.099Z,18.83
2018-04-18T06:06:15.989Z,17.70
2018-04-18T06:08:42.959Z,18.67
2018-04-18T06:11:09.943Z,17.47
2018-04-18T06:13:36.813Z,18.70
2018-04-18T06:16:04.665Z,17.53
2018-04-18T06:18:31.526Z,17.60
2018-04-18T06:20:59.186Z,16.77
2018-04-18T06:23:26.949Z,17.03
2018-04-18T06:25:54.575Z,17.93
2018-04-18T06:28:21.882Z,17.70
2018-04-18T06:30:49.015Z,18.87
2018-04-18T06:33:16.624Z,19.27
2018-04-18T06:35:43.483Z,20.30
2018-04-18T06:38:10.556Z,20.37
2018-04-18T06:40:37.463Z,20.30
2018-04-18T06:43:04.317Z,18.90
2018-04-18T06:45:31.255Z,19.97
2018-04-18T06:47:58.131Z,19.00
2018-04-18T06:50:25.010Z,19.77
2018-04-18T06:52:52.783Z,18.27
2018-04-18T06:55:19.644Z,18.93
2018-04-18T06:57:46.527Z,21.37
2018-04-18T07:00:13.710Z,19.43
2018-04-18T07:02:41.317Z,21.40
2018-04-18T07:05:08.244Z,19.60
2018-04-18T07:07:35.277Z,20.93
2018-04-18T07:10:02.932Z,19.43
2018-04-18T07:12:30.540Z,22.33
2018-04-18T07:14:57.454Z,19.47
2018-04-18T07:17:24.329Z,20.83
2018-04-18T07:19:51.252Z,21.13
2018-04-18T07:22:18.370Z,20.90
2018-04-18T07:24:45.247Z,21.23
2018-04-18T07:27:12.171Z,20.90
2018-04-18T07:29:40.011Z,20.67
2018-04-18T07:32:06.981Z,21.67
2018-04-18T07:34:34.633Z,22.47
2018-04-18T07:37:01.661Z,23.80
2018-04-18T07:39:28.536Z,21.97
2018-04-18T07:41:56.140Z,22.63
2018-04-18T07:44:23.115Z,23.50
2018-04-18T07:46:50.044Z,22.47
2018-04-18T07:49:16.968Z,21.17
2018-04-18T07:51:43.997Z,23.13
2018-04-18T07:54:11.621Z,20.70
2018-04-18T07:56:38.546Z,20.50
2018-04-18T07:59:06.249Z,21.00
2018-04-18T08:01:33.123Z,20.57
2018-04-18T08:03:59.991Z,18.40
2018-04-18T08:06:28.513Z,16.00
2018-04-18T08:08:55.386Z,17.93
2018-04-18T08:11:23.004Z,17.27
2018-04-18T08:13:50.068Z,17.27
2018-04-18T08:16:16.987Z,17.60
2018-04-18T08:18:43.857Z,15.97
2018-04-18T08:21:11.033Z,14.97
2018-04-18T08:23:39.247Z,13.83
2018-04-18T08:26:06.167Z,13.13
2018-04-18T08:28:33.088Z,12.20
2018-04-18T08:30:59.966Z,10.70
2018-04-18T08:33:26.822Z,10.20
2018-04-18T08:35:53.988Z,9.83
2018-04-18T08:38:20.858Z,12.57
2018-04-18T08:40:47.842Z,12.20
2018-04-18T08:45:50.117Z,10.53
2018-04-18T08:48:17.738Z,10.87
2018-04-18T08:50:44.619Z,9.40
2018-04-18T08:53:11.576Z,9.97
2018-04-18T08:55:39.189Z,9.37
2018-04-18T08:58:06.768Z,8.73
2018-04-18T09:00:33.728Z,9.90
2018-04-18T09:03:00.639Z,9.03
2018-04-18T09:05:27.590Z,5.80
2018-04-18T09:07:54.692Z,5.93
2018-04-18T09:10:22.393Z,6.00
2018-04-18T09:12:49.244Z,6.90
2018-04-18T09:15:16.264Z,6.13
2018-04-18T09:17:43.217Z,6.27
2018-04-18T09:20:10.103Z,5.97
2018-04-18T09:22:37.219Z,8.37
2018-04-18T09:25:04.153Z,8.03
2018-04-18T09:27:31.011Z,7.30
2018-04-18T09:29:58.032Z,6.33
2018-04-18T09:32:25.640Z,7.07
2018-04-18T09:34:52.505Z,7.13
2018-04-18T09:37:19.585Z,7.27
2018-04-18T09:39:47.188Z,7.53
2018-04-18T09:42:14.126Z,7.30
2018-04-18T09:44:47.228Z,7.27
2018-04-18T09:47:14.105Z,5.20
2018-04-18T09:49:40.982Z,5.33
2018-04-18T09:52:08.829Z,4.67
2018-04-18T09:54:35.747Z,4.57
2018-04-18T09:57:03.359Z,4.27
2018-04-18T09:59:31.269Z,4.23
2018-04-18T10:02:04.190Z,5.20
2018-04-18T10:04:31.163Z,6.20
2018-04-18T10:06:59.272Z,5.07
2018-04-18T10:09:26.140Z,5.67
2018-04-18T10:11:53.022Z,6.23
2018-04-18T10:14:20.881Z,5.80
2018-04-18T10:16:48.542Z,6.30
2018-04-18T10:19:16.164Z,6.03
2018-04-18T10:21:43.348Z,6.33
2018-04-18T10:24:10.266Z,7.07
2018-04-18T10:26:37.133Z,6.70
2018-04-18T10:29:04.302Z,6.40
2018-04-18T10:31:31.928Z,6.03
2018-04-18T10:33:58.789Z,6.00
2018-04-18T10:36:25.905Z,6.03
2018-04-18T10:38:52.838Z,6.57
2018-04-18T10:41:19.768Z,6.90
2018-04-18T10:43:47.467Z,7.07
2018-04-18T10:46:14.327Z,6.50
2018-04-18T10:48:41.284Z,7.10
2018-04-18T10:51:08.217Z,8.47
2018-04-18T10:53:35.094Z,8.67
2018-04-18T10:56:02.281Z,9.17
2018-04-18T10:58:29.332Z,9.00
2018-04-18T11:00:56.198Z,8.83
2018-04-18T11:03:23.122Z,10.33
2018-04-18T11:05:50.176Z,9.57
2018-04-18T11:08:17.064Z,10.60
2018-04-18T11:10:43.943Z,8.67
2018-04-18T11:13:11.826Z,10.30
2018-04-18T11:15:38.766Z,9.70
2018-04-18T11:18:05.633Z,7.87
2018-04-18T11:20:32.541Z,9.37
2018-04-18T11:23:00.172Z,8.17
2018-04-18T11:25:27.110Z,8.67
2018-04-18T11:27:54.248Z,8.80
2018-04-18T11:30:21.162Z,8.10
2018-04-18T11:32:48.033Z,9.07
2018-04-18T11:35:15.143Z,8.23
2018-04-18T11:37:42.814Z,7.90
2018-04-18T11:40:09.683Z,8.77
2018-04-18T11:42:36.844Z,8.57
2018-04-18T11:45:03.785Z,7.87
2018-04-18T11:47:30.699Z,7.43
2018-04-18T11:49:58.542Z,7.13
2018-04-18T11:52:25.461Z,6.73
2018-04-18T11:54:52.325Z,6.50
2018-04-18T11:57:19.400Z,7.23
2018-04-18T11:59:47.073Z,7.27
2018-04-18T12:02:14.794Z,6.87
2018-04-18T12:04:41.761Z,6.03
2018-04-18T12:07:09.459Z,5.80
2018-04-18T12:09:36.343Z,6.33
2018-04-18T12:12:03.389Z,6.47
2018-04-18T12:14:30.314Z,6.80
2018-04-18T12:16:57.185Z,6.17
2018-04-18T12:19:24.954Z,5.40
2018-04-18T12:21:51.839Z,6.33
2018-04-18T12:24:18.807Z,5.80
2018-04-18T12:26:45.744Z,5.13
2018-04-18T12:29:12.681Z,5.80
2018-04-18T12:31:40.338Z,5.63
2018-04-18T12:34:08.258Z,5.50
2018-04-18T12:36:35.384Z,5.47
2018-04-18T12:39:02.332Z,5.50
2018-04-18T12:41:29.443Z,5.13
2018-04-18T12:43:56.362Z,5.60
2018-04-18T12:46:23.232Z,5.63
2018-04-18T12:48:50.232Z,4.57
2018-04-18T12:51:17.101Z,4.60
2018-04-18T12:53:44.036Z,4.80
2018-04-18T12:56:11.124Z,4.70
2018-04-18T12:58:37.994Z,4.60
2018-04-18T13:01:04.878Z,4.33
2018-04-18T13:03:31.965Z,4.43
2018-04-18T13:05:58.915Z,4.50
2018-04-18T13:08:25.789Z,4.50
2018-04-18T13:10:52.812Z,4.67
2018-04-18T13:13:20.489Z,4.80
2018-04-18T13:15:48.107Z,3.77
2018-04-18T13:18:15.223Z,3.73
2018-04-18T13:20:42.141Z,4.60
2018-04-18T13:23:09.807Z,3.67
2018-04-18T13:25:37.651Z,4.27
2018-04-18T13:28:04.584Z,4.83
2018-04-18T13:30:32.235Z,5.30
2018-04-18T13:32:59.217Z,4.87
2018-04-18T13:35:26.078Z,4.77
2018-04-18T13:37:53.813Z,4.60
2018-04-18T13:40:20.946Z,4.30
2018-04-18T13:42:47.863Z,6.20
2018-04-18T13:45:14.839Z,6.53
2018-04-18T13:47:41.912Z,5.50
2018-04-18T13:50:08.789Z,5.47
2018-04-18T13:52:35.661Z,5.87
2018-04-18T13:55:02.624Z,6.07
2018-04-18T13:57:29.505Z,5.80
2018-04-18T13:59:57.111Z,10.97
2018-04-18T14:02:24.089Z,6.47
2018-04-18T14:04:50.952Z,4.90
2018-04-18T14:07:17.932Z,5.47
2018-04-18T14:09:44.870Z,5.50
2018-04-18T14:12:11.801Z,5.80
2018-04-18T14:14:39.433Z,5.30
2018-04-18T14:17:07.144Z,5.83
2018-04-18T14:19:34.748Z,6.17
2018-04-18T14:22:01.708Z,7.00
2018-04-18T14:24:28.578Z,6.80
2018-04-18T14:26:55.544Z,6.53
2018-04-18T14:29:23.158Z,6.97
2018-04-18T14:31:50.083Z,6.57
2018-04-18T14:34:17.005Z,6.83
2018-04-18T14:36:43.946Z,7.00
2018-04-18T14:39:11.567Z,6.87
2018-04-18T14:41:38.496Z,6.57
2018-04-18T14:44:05.394Z,7.40
2018-04-18T14:46:33.099Z,6.60
2018-04-18T14:49:00.095Z,6.90
2018-04-18T14:51:27.805Z,7.23
2018-04-18T14:53:54.721Z,7.53
2018-04-18T14:56:22.493Z,8.77
2018-04-18T14:58:49.454Z,7.80
2018-04-18T15:01:16.376Z,7.90
2018-04-18T15:03:44.135Z,7.97
2018-04-18T15:06:11.803Z,7.20
2018-04-18T15:08:38.796Z,7.37
2018-04-18T15:11:05.785Z,7.97
2018-04-18T15:13:33.460Z,8.07
2018-04-18T15:16:01.094Z,8.70
2018-04-18T15:18:28.022Z,8.20
2018-04-18T15:20:54.944Z,7.63
2018-04-18T15:23:21.925Z,7.20
2018-04-18T15:25:48.857Z,8.67
2018-04-18T15:28:16.008Z,7.37
2018-04-18T15:30:42.880Z,7.30
2018-04-18T15:33:09.752Z,8.20
2018-04-18T15:35:37.457Z,8.40
2018-04-18T15:38:04.386Z,7.77
2018-04-18T15:40:31.303Z,7.83
2018-04-18T15:42:59.128Z,7.87
2018-04-18T15:45:26.141Z,7.93
2018-04-18T15:47:53.085Z,7.63
2018-04-18T15:50:20.036Z,7.00
2018-04-18T15:52:47.065Z,7.03
2018-04-18T15:55:14.742Z,8.53
2018-04-18T15:57:41.618Z,7.67
2018-04-18T16:00:08.596Z,8.00
2018-04-18T16:02:35.476Z,7.40
2018-04-18T16:05:02.419Z,7.20
2018-04-18T16:07:29.386Z,7.57
2018-04-18T16:09:56.976Z,7.97
2018-04-18T16:12:24.013Z,7.27
2018-04-18T16:14:50.978Z,6.90
2018-04-18T16:17:17.891Z,6.53
2018-04-18T16:19:44.768Z,7.07
2018-04-18T16:22:11.679Z,6.63
2018-04-18T16:24:38.552Z,8.03
2018-04-18T16:27:05.529Z,7.20
2018-04-18T16:29:42.022Z,7.63
2018-04-18T16:32:09.728Z,6.87
2018-04-18T16:34:36.697Z,7.00
2018-04-18T16:37:03.636Z,7.37
2018-04-18T16:39:30.523Z,6.63
2018-04-18T16:41:57.644Z,6.77
2018-04-18T16:44:24.530Z,7.33
2018-04-18T16:46:51.435Z,6.20
2018-04-18T16:49:18.463Z,5.90
2018-04-18T16:51:45.338Z,6.00
2018-04-18T16:54:12.226Z,6.27
2018-04-18T16:56:39.173Z,5.97
2018-04-18T16:59:06.069Z,6.67
2018-04-18T17:01:32.960Z,6.27
2018-04-18T17:03:59.885Z,5.03
2018-04-18T17:06:27.550Z,5.90
2018-04-18T17:08:55.253Z,5.50
2018-04-18T17:11:22.133Z,5.43
2018-04-18T17:13:49.167Z,5.97
2018-04-18T17:16:19.125Z,6.17
2018-04-18T17:18:46.330Z,5.10
2018-04-18T17:21:13.336Z,4.70
2018-04-18T17:23:40.277Z,4.73
2018-04-18T17:26:07.935Z,4.40
2018-04-18T17:28:35.599Z,4.80
2018-04-18T17:31:03.268Z,4.67
2018-04-18T17:33:30.197Z,4.60
2018-04-18T17:35:57.857Z,4.80
2018-04-18T17:38:24.799Z,4.63
2018-04-18T17:40:52.478Z,4.20
2018-04-18T17:43:19.440Z,4.57
2018-04-18T17:45:46.380Z,4.60
2018-04-18T17:48:13.378Z,4.43
2018-04-18T17:50:40.320Z,5.10
2018-04-18T17:53:07.412Z,4.90
2018-04-18T17:55:35.067Z,4.17
2018-04-18T17:58:04.948Z,4.20
2018-04-18T18:00:31.903Z,4.40
2018-04-18T18:02:58.791Z,4.80
2018-04-18T18:05:26.447Z,4.40
2018-04-18T18:07:55.654Z,4.87
2018-04-18T18:10:23.377Z,5.43
2018-04-18T18:12:50.298Z,5.93
2018-04-18T18:15:17.793Z,6.37
2018-04-18T18:17:45.123Z,6.57
2018-04-18T18:20:11.997Z,7.37
2018-04-18T18:22:38.888Z,7.60
2018-04-18T18:25:05.902Z,5.40
2018-04-18T18:27:33.912Z,5.57
2018-04-18T18:30:01.089Z,4.37
2018-04-18T18:32:27.962Z,4.30
2018-04-18T18:34:54.946Z,5.13
2018-04-18T18:37:21.893Z,5.63
2018-04-18T18:39:48.833Z,6.77
2018-04-18T18:42:15.722Z,6.13
2018-04-18T18:44:48.612Z,5.70
2018-04-18T18:47:16.363Z,5.23
2018-04-18T18:49:43.298Z,6.53
2018-04-18T18:52:10.193Z,6.77
2018-04-18T18:54:37.818Z,6.87
2018-04-18T18:57:04.818Z,6.80
2018-04-18T18:59:32.427Z,6.60
2018-04-18T19:01:59.355Z,8.43
2018-04-18T19:04:26.332Z,6.67
2018-04-18T19:06:53.188Z,6.20
2018-04-18T19:09:20.164Z,6.50
2018-04-18T19:11:47.772Z,6.20
2018-04-18T19:14:14.796Z,6.20
2018-04-18T19:16:41.984Z,5.53
2018-04-18T19:19:09.592Z,6.40
2018-04-18T19:21:37.242Z,6.70
2018-04-18T19:24:04.104Z,6.37
2018-04-18T19:26:31.961Z,6.17
2018-04-18T19:28:59.617Z,6.70
2018-04-18T19:31:26.479Z,5.97
2018-04-18T19:33:54.193Z,7.00
2018-04-18T19:36:21.064Z,7.23
2018-04-18T19:38:47.972Z,6.07
2018-04-18T19:41:14.868Z,5.93
2018-04-18T19:43:41.784Z,6.07
2018-04-18T19:46:08.844Z,6.70
2018-04-18T19:48:35.771Z,6.50
2018-04-18T19:51:02.701Z,6.63
2018-04-18T19:53:29.660Z,6.17
2018-04-18T19:55:56.564Z,6.03
2018-04-18T19:58:24.275Z,6.00
2018-04-18T20:00:51.197Z,6.00
2018-04-18T20:03:18.456Z,6.20
2018-04-18T20:05:45.370Z,6.80
2018-04-18T20:08:13.038Z,6.70
2018-04-18T20:10:40.752Z,6.57
2018-04-18T20:13:07.716Z,6.80
2018-04-18T20:15:34.697Z,7.90
2018-04-18T20:18:02.339Z,5.90
2018-04-18T20:20:29.296Z,7.10
2018-04-18T20:22:56.904Z,7.40
2018-04-18T20:25:23.857Z,8.60
2018-04-18T20:27:50.729Z,7.10
2018-04-18T20:30:17.635Z,7.30
2018-04-18T20:32:44.541Z,8.40
2018-04-18T20:35:12.152Z,7.60
2018-04-18T20:37:39.017Z,8.47
2018-04-18T20:40:05.924Z,8.93
2018-04-18T20:42:32.845Z,9.43
2018-04-18T20:45:00.551Z,9.33
2018-04-18T20:47:27.528Z,9.63
2018-04-18T20:49:54.381Z,9.20
2018-04-18T20:52:21.255Z,9.47
2018-04-18T20:54:48.169Z,9.67
2018-04-18T20:57:15.038Z,9.73
2018-04-18T20:59:42.688Z,9.77
2018-04-18T21:02:09.608Z,9.80
2018-04-18T21:04:36.481Z,9.93
2018-04-18T21:07:04.235Z,8.30
2018-04-18T21:09:31.105Z,9.10
2018-04-18T21:11:58.726Z,8.80
2018-04-18T21:14:25.683Z,8.87
2018-04-18T21:16:52.537Z,8.73
2018-04-18T21:19:20.203Z,8.07
2018-04-18T21:21:47.865Z,8.87
2018-04-18T21:24:14.740Z,7.80
2018-04-18T21:26:41.678Z,8.13
2018-04-18T21:29:08.656Z,8.20
2018-04-18T21:31:35.524Z,8.40
2018-04-18T21:34:02.480Z,8.53
2018-04-18T21:36:29.412Z,7.37
2018-04-18T21:38:56.264Z,7.67
2018-04-18T21:41:23.221Z,8.00
2018-04-18T21:43:50.097Z,7.77
2018-04-18T21:46:17.286Z,7.40
2018-04-18T21:48:44.221Z,7.77
2018-04-18T21:51:11.094Z,7.77
2018-04-18T21:53:38.073Z,7.50
2018-04-18T21:56:04.945Z,7.87
2018-04-18T21:58:31.910Z,7.30
2018-04-18T22:00:58.836Z,7.73
2018-04-18T22:03:25.691Z,7.90
2018-04-18T22:05:52.605Z,7.70
2018-04-18T22:08:20.260Z,8.30
2018-04-18T22:10:47.126Z,7.70
2018-04-18T22:13:14.125Z,7.53
2018-04-18T22:15:40.997Z,8.03
2018-04-18T22:18:07.984Z,8.13
2018-04-18T22:20:34.861Z,8.23
2018-04-18T22:23:01.828Z,8.87
2018-04-18T22:25:28.694Z,7.63
2018-04-18T22:27:55.569Z,7.87
2018-04-18T22:30:22.517Z,7.20
2018-04-18T22:32:49.476Z,6.97
2018-04-18T22:35:16.348Z,7.80
2018-04-18T22:37:44.245Z,7.73
2018-04-18T22:40:11.949Z,6.63
2018-04-18T22:42:38.847Z,7.60
2018-04-18T22:45:06.493Z,7.87
2018-04-18T22:47:33.360Z,7.13
2018-04-18T22:50:00.313Z,8.20
2018-04-18T22:52:27.917Z,6.97
2018-04-18T22:54:54.789Z,7.87
2018-04-18T22:57:21.799Z,8.37
2018-04-18T22:59:48.667Z,7.83
2018-04-18T23:02:15.541Z,7.67
2018-04-18T23:04:42.504Z,8.10
2018-04-18T23:07:10.351Z,8.43
2018-04-18T23:09:37.993Z,8.00
2018-04-18T23:12:04.925Z,8.53
2018-04-18T23:14:31.841Z,7.47
2018-04-18T23:16:58.712Z,7.83
2018-04-18T23:19:25.624Z,7.33
2018-04-18T23:21:53.304Z,6.90
2018-04-18T23:24:20.203Z,7.07
2018-04-18T23:26:47.064Z,9.47
2018-04-18T23:29:14.779Z,7.40
2018-04-18T23:31:41.658Z,8.43
2018-04-18T23:34:08.562Z,8.23
2018-04-18T23:36:35.469Z,7.53
2018-04-18T23:39:03.239Z,8.37
2018-04-18T23:41:30.107Z,7.53
2018-04-18T23:43:57.017Z,7.07
2018-04-18T23:46:23.996Z,7.90
2018-04-18T23:48:50.922Z,7.67
2018-04-18T23:51:18.537Z,7.13
2018-04-18T23:53:45.469Z,7.07
2018-04-18T23:56:12.332Z,7.70
2018-04-18T23:58:39.214Z,6.77
